Belmont, Idaho
Current Conditions -  °F | °C
As of 6:55 AM on Friday 19 Dec 2014 (Local Time) from KCOE Reporting Station
Overcast Overcast  
Wind Chill: 37°   Ceiling: 2100
Heat Index: 37°   Visibility: 10mi
Dew Point: 36°   Wind: 3mph
Humidity: 93%   Direction: 40°NE
Pressure: 29.87"   Gusts: NA
Location:  47.9325°N, 116.647°W
Report Text: KCOE 191455Z AUTO 04003KT 10SM OVC021 03/02 A2987 RMK AO1 P0005 60013 57003
Loading
Personal Weather Stations






























Interactive Weather Map New forecast layout! Learn more

10-Day Weather Forecast

Advertisements
Track Severe Weather on mobile